Latest Weather Observations for Woolshed

IDQ60801

Issued at 4:32 am EST Wednesday 24 May 2017 (issued every 30 minutes, with the page automatically refreshed every 10 minutes)

About weather observations | Map of weather stations | Latest weather observations for QLD | Other Formats
Station Details ID: 033307 Name: WOOLSHED Lat: -19.42 Lon: 146.54 Height: 556.04 m
Data from the previous 72 hours. | See also: Recent months at Woolshed
Date/Time
EST
Temp
°C
App
Temp
°C
Dew
Point
°C
Rel
Hum
%
Delta-T
°C
Wind Press
QNH
hPa
Press
MSL
hPa
Rain since
9am
mm
Dir  Spd
km/h
Gust
km/h
Spd
kts
Gust
kts
24/04:30am - - - - - - - - - - 1019.4 1017.2 4.6
24/04:00am - - - - - - - - - - 1019.3 1017.1 4.6
24/03:30am - - - - - - - - - - 1019.3 1017.1 4.6
24/03:00am - - - - - - - - - - 1019.5 1017.3 4.6
24/02:30am - - - - - - - - - - 1019.4 1017.2 4.6
24/02:00am - - - - - - - - - - 1019.4 1017.2 4.6
24/01:30am - - - - - - - - - - 1019.7 1017.5 4.6
24/01:00am - - - - - - - - - - 1019.8 1017.6 4.6
24/12:30am - - - - - - - - - - 1020.1 1017.9 4.6
24/12:00am - - - - - - - - - - 1020.2 1018.0 4.6
 
Date/Time
EST
Temp
°C
App
Temp
°C
Dew
Point
°C
Rel
Hum
%
Delta-T
°C
Wind Press
QNH
hPa
Press
MSL
hPa
Rain since
9am
mm
Dir  Spd
km/h
Gust
km/h
Spd
kts
Gust
kts
23/11:30pm - - - - - - - - - - 1020.2 1018.0 4.6
23/11:00pm - - - - - - - - - - 1020.3 1018.1 4.6
23/10:30pm - - - - - - - - - - 1020.5 1018.3 4.6
23/10:00pm - - - - - - - - - - 1020.5 1018.3 4.6
23/09:30pm - - - - - - - - - - 1020.5 1018.3 4.6
23/09:00pm - - - - - - - - - - 1020.2 1018.0 4.6
23/08:30pm - - - - - - - - - - 1020.1 1017.9 4.6
23/08:00pm - - - - - - - - - - 1019.7 1017.5 4.6
23/07:30pm - - - - - - - - - - 1019.5 1017.3 4.6
23/07:00pm - - - - - - - - - - 1019.1 1016.9 4.6
23/06:30pm - - - - - - - - - - 1019.0 1016.8 4.4
23/06:00pm - - - - - - - - - - 1018.8 1016.6 3.4
23/05:30pm - - - - - - - - - - 1018.6 1016.4 3.4
23/05:00pm - - - - - - - - - - 1018.4 1016.2 3.0
23/04:30pm - - - - - - - - - - 1018.0 1015.8 1.2
23/04:00pm - - - - - - - - - - 1017.8 1015.6 0.2
23/03:30pm - - - - - - - - - - 1017.7 1015.5 0.2
23/03:00pm - - - - - - - - - - 1017.6 1015.4 0.0
23/02:30pm - - - - - - - - - - 1017.7 1015.5 0.0
23/02:00pm - - - - - - - - - - 1017.9 1015.7 0.0
23/01:30pm - - - - - - - - - - 1018.3 1016.0 0.0
23/01:00pm - - - - - - - - - - 1018.7 1016.5 0.0
23/12:30pm - - - - - - - - - - 1019.2 1017.0 0.0
23/12:00pm - - - - - - - - - - 1019.6 1017.4 0.0
23/11:30am - - - - - - - - - - 1019.8 1017.6 0.0
23/11:00am - - - - - - - - - - 1020.2 1018.0 0.0
23/10:30am - - - - - - - - - - 1020.4 1018.2 0.0
23/10:00am - - - - - - - - - - 1020.7 1018.5 0.0
23/09:30am - - - - - - - - - - 1020.7 1018.5 0.0
23/09:00am - - - - - - - - - - 1020.5 1018.3 0.8
23/08:30am - - - - - - - - - - 1020.2 1018.0 0.8
23/08:00am - - - - - - - - - - 1019.9 1017.8 0.8
23/07:30am - - - - - - - - - - 1019.6 1017.4 0.8
23/07:00am - - - - - - - - - - 1019.4 1017.2 0.8
23/06:30am - - - - - - - - - - 1019.0 1016.8 0.8
23/06:00am - - - - - - - - - - 1018.9 1016.7 0.8
23/05:30am - - - - - - - - - - 1018.5 1016.3 0.8
23/05:00am - - - - - - - - - - 1018.4 1016.2 0.8
23/04:30am - - - - - - - - - - 1018.4 1016.2 0.8
23/04:00am - - - - - - - - - - 1018.4 1016.2 0.8
23/03:30am - - - - - - - - - - 1018.2 1015.9 0.8
23/03:00am - - - - - - - - - - 1018.3 1016.0 0.8
23/02:30am - - - - - - - - - - 1018.4 1016.2 0.8
23/02:00am - - - - - - - - - - 1018.4 1016.2 0.8
23/01:30am - - - - - - - - - - 1018.7 1016.5 0.8
23/01:00am - - - - - - - - - - 1019.0 1016.8 0.8
23/12:30am - - - - - - - - - - 1019.1 1016.9 0.6
23/12:00am - - - - - - - - - - 1019.1 1016.9 0.6
 
Date/Time
EST
Temp
°C
App
Temp
°C
Dew
Point
°C
Rel
Hum
%
Delta-T
°C
Wind Press
QNH
hPa
Press
MSL
hPa
Rain since
9am
mm
Dir  Spd
km/h
Gust
km/h
Spd
kts
Gust
kts
22/11:30pm - - - - - - - - - - 1019.2 1017.0 0.6
22/11:00pm - - - - - - - - - - 1019.4 1017.2 0.6
22/10:30pm - - - - - - - - - - 1019.4 1017.2 0.4
22/10:00pm - - - - - - - - - - 1019.5 1017.3 0.0
22/09:30pm - - - - - - - - - - 1019.5 1017.3 0.0
22/09:00pm 18.2 - 16.9 92 0.8 - - - - - 1019.5 1017.3 0.0
22/08:30pm - - - - - - - - - - 1019.5 1017.3 0.0
22/08:00pm - - - - - - - - - - 1019.3 1017.1 0.0
22/07:30pm - - - - - - - - - - 1019.0 1016.8 0.0
22/07:00pm - - - - - - - - - - 1018.6 1016.4 0.0
22/06:30pm - - - - - - - - - - 1018.2 1015.9 0.0
22/06:00pm - - - - - - - - - - 1017.9 1015.7 0.0
22/05:30pm - - - - - - - - - - 1017.7 1015.5 0.0
22/05:00pm - - - - - - - - - - 1017.4 1015.2 0.0
22/04:30pm - - - - - - - - - - 1017.1 1014.9 0.0
22/04:00pm - - - - - - - - - - 1016.8 1014.6 0.0
22/03:30pm - - - - - - - - - - 1016.8 1014.6 0.0
22/03:00pm - - - - - - - - - - 1016.7 1014.4 0.0
22/02:30pm - - - - - - - - - - 1016.8 1014.6 0.0
22/02:00pm - - - - - - - - - - 1017.1 1014.9 0.0
22/01:30pm - - - - - - - - - - 1017.3 1015.1 0.0
22/01:00pm - - - - - - - - - - 1017.6 1015.4 0.0
22/12:30pm - - - - - - - - - - 1018.2 1015.9 0.0
22/12:00pm - - - - - - - - - - 1018.5 1016.3 0.0
22/11:30am - - - - - - - - - - 1018.9 1016.7 0.0
22/11:00am - - - - - - - - - - 1019.6 1017.4 0.0
22/10:30am - - - - - - - - - - 1019.9 1017.8 0.0
22/10:00am - - - - - - - - - - 1020.1 1017.9 0.0
22/09:30am - - - - - - - - - - 1020.1 1017.9 0.0
22/09:00am - - - - - - - - - - 1019.9 1017.8 0.2
22/08:30am - - - - - - - - - - 1019.9 1017.8 0.2
22/08:00am - - - - - - - - - - 1019.8 1017.6 0.2
22/07:30am - - - - - - - - - - 1019.4 1017.2 0.2
22/07:00am - - - - - - - - - - 1019.3 1017.1 0.2
22/06:30am - - - - - - - - - - 1018.9 1016.7 0.2
22/06:00am - - - - - - - - - - 1018.6 1016.4 0.2
22/05:30am - - - - - - - - - - 1018.2 1015.9 0.2
22/05:00am - - - - - - - - - - 1018.2 1015.9 0.2
22/04:30am - - - - - - - - - - 1018.0 1015.8 0.2
22/04:00am - - - - - - - - - - 1017.8 1015.6 0.2
22/03:30am 14.1 - - - - - - - - - 1017.8 1015.6 0.2
22/03:00am 15.5 - 15.0 97 0.3 - - - - - 1017.8 1015.6 0.2
22/02:30am 15.3 - 14.2 93 0.6 - - - - - 1017.9 1015.7 0.2
22/02:00am 17.3 - 16.7 96 0.4 - - - - - 1018.2 1015.9 0.2
22/01:30am 17.1 - 16.3 95 0.5 - - - - - 1018.3 1016.0 0.2
22/01:00am 17.8 - 17.2 96 0.4 - - - - - 1018.5 1016.3 0.2
22/12:30am 18.0 - 17.4 96 0.4 - - - - - 1018.6 1016.4 0.2
22/12:00am 18.2 - 17.4 95 0.5 - - - - - 1018.7 1016.5 0.2
 
Date/Time
EST
Temp
°C
App
Temp
°C
Dew
Point
°C
Rel
Hum
%
Delta-T
°C
Wind Press
QNH
hPa
Press
MSL
hPa
Rain since
9am
mm
Dir  Spd
km/h
Gust
km/h
Spd
kts
Gust
kts
21/11:30pm 18.4 - 17.6 95 0.5 - - - - - 1018.9 1016.7 0.2
21/11:00pm 18.7 - 17.9 95 0.5 - - - - - 1019.1 1016.9 0.2
21/10:30pm 18.7 - 18.0 96 0.4 - - - - - 1019.2 1017.0 0.2
21/10:00pm 18.7 - 18.0 96 0.4 - - - - - 1019.2 1017.0 0.2
21/09:30pm 18.8 - 18.3 97 0.3 - - - - - 1019.2 1017.0 0.2
21/09:00pm 18.7 - 18.4 98 0.2 - - - - - 1019.1 1016.9 0.2
21/08:30pm 18.5 - 18.0 97 0.3 - - - - - 1018.8 1016.6 0.2
21/08:00pm 18.6 - 18.1 97 0.3 - - - - - 1018.5 1016.3 0.2
21/07:30pm 18.8 - 18.3 97 0.3 - - - - - 1018.2 1015.9 0.2
21/07:00pm 18.7 - 17.9 95 0.5 - - - - - 1017.7 1015.5 0.2
21/06:30pm 18.2 - 16.9 92 0.8 - - - - - 1017.3 1015.1 0.2
21/06:00pm 18.8 - 17.1 90 1.1 - - - - - 1017.0 1014.8 0.2
21/05:30pm 19.8 - 17.6 87 1.4 - - - - - 1016.8 1014.6 0.2
21/05:00pm 21.0 - 18.2 84 1.8 - - - - - 1016.6 1014.3 0.2
21/04:30pm 21.3 - 18.3 83 1.9 - - - - - 1016.5 1014.2 0.2
21/04:00pm 22.1 - 18.3 79 2.4 - - - - - 1016.4 1014.1 0.2
21/03:30pm 22.7 - 18.3 76 2.8 - - - - - 1016.3 1014.0 0.2
21/03:00pm 22.1 - 17.7 76 2.8 - - - - - 1016.4 1014.1 0.2
21/02:30pm 23.5 - 17.7 70 3.7 - - - - - 1016.4 1014.1 0.2
21/02:00pm 23.8 - 16.8 65 4.4 - - - - - 1016.5 1014.2 0.2
21/01:30pm 23.8 - - - - - - - - - 1016.8 1014.6 0.2
21/01:00pm 24.3 - - - - - - - - - 1017.2 1015.0 0.2
21/12:30pm 24.0 - 17.0 65 4.4 - - - - - 1017.5 1015.3 0.2
21/12:00pm 23.1 - 17.1 69 3.8 - - - - - 1017.6 1015.4 0.2
21/11:30am 22.9 - 17.8 73 3.2 - - - - - 1018.0 1015.8 0.0
21/11:00am 23.0 - 17.0 69 3.8 - - - - - 1018.4 1016.2 0.0
21/10:30am 22.0 - 16.5 71 3.4 - - - - - 1018.8 1016.6 0.0
21/10:00am 21.4 - 16.4 73 3.1 - - - - - 1018.9 1016.7 0.0
21/09:30am 20.7 - 16.3 76 2.7 - - - - - 1018.8 1016.6 0.0
21/09:00am 20.4 - 17.0 81 2.1 - - - - - 1018.6 1016.4 0.0
21/08:30am 19.1 - 16.5 85 1.6 - - - - - 1018.4 1016.2 0.0
21/08:00am 18.4 - 16.6 89 1.1 - - - - - 1018.2 1015.9 0.0
21/07:30am 17.5 - 16.4 93 0.7 - - - - - 1017.8 1015.6 0.0
21/07:00am 16.3 - 15.7 96 0.4 - - - - - 1017.5 1015.3 0.0
21/06:30am 16.4 - 15.9 97 0.3 - - - - - 1017.1 1014.9 0.0
21/06:00am 16.7 - 16.2 97 0.3 - - - - - 1017.0 1014.8 0.0
21/05:30am 16.8 - 16.2 96 0.4 - - - - - 1016.8 1014.6 0.0
21/05:00am 17.1 - 16.5 96 0.4 - - - - - 1016.5 1014.2 0.0

Other Formats:

Comma delimited format used in spreadsheet applications
http://www.bom.gov.au/fwo/IDQ60801/IDQ60801.95293.axf

JavaScript Object Notation format (JSON) in row-major order
http://www.bom.gov.au/fwo/IDQ60801/IDQ60801.95293.json